Time;durP1;ratioP1;P1;durP2;ratioP2;P2;SDS_P1;SDS_P2;PMS_P1;PMS_P2;Temp;Humidity;BMP_temperature;BMP_pressure;BME280_temperature;BME280_humidity;BME280_pressure;Samples;Min_cycle;Max_cycle;Signal;HPM_P1;HPM_P2
2021/01/22 00:01:28;;;;;;;31.02;6.93;;;13.30;99.90;;;;;;5073478;28;20543;-66
2021/01/22 00:03:56;;;;;;;31.90;4.18;;;13.30;99.90;;;;;;5072602;28;20041;-65
2021/01/22 00:06:24;;;;;;;33.70;5.50;;;13.30;99.90;;;;;;5073086;28;20055;-66
2021/01/22 00:08:51;;;;;;;27.80;5.63;;;13.30;99.90;;;;;;5081695;28;20054;-66
2021/01/22 00:11:19;;;;;;;24.20;4.53;;;13.30;99.90;;;;;;5091777;28;20058;-66
2021/01/22 00:13:46;;;;;;;31.92;6.03;;;13.30;99.90;;;;;;5092865;28;20056;-68
2021/01/22 00:16:14;;;;;;;23.00;4.05;;;13.30;99.90;;;;;;5097083;28;20048;-66
2021/01/22 00:18:41;;;;;;;23.00;3.88;;;13.30;99.90;;;;;;5079528;28;20040;-66
2021/01/22 00:21:08;;;;;;;27.13;3.45;;;13.30;99.90;;;;;;5096343;28;20051;-66
2021/01/22 00:23:39;;;;;;;30.30;3.75;;;13.30;99.90;;;;;;5095726;28;20101;-64
2021/01/22 00:26:07;;;;;;;25.48;3.78;;;13.30;99.90;;;;;;5079147;28;20049;-66
2021/01/22 00:28:35;;;;;;;23.92;5.25;;;13.30;99.90;;;;;;5084297;28;20055;-66
2021/01/22 00:31:03;;;;;;;25.27;3.65;;;13.30;99.90;;;;;;5097170;28;20063;-66
2021/01/22 00:33:30;;;;;;;22.52;4.75;;;13.40;99.90;;;;;;5096838;28;20079;-66
2021/01/22 00:35:58;;;;;;;21.05;5.15;;;13.40;99.90;;;;;;5097159;28;20052;-66
2021/01/22 00:38:25;;;;;;;20.60;4.20;;;13.40;99.90;;;;;;5096912;28;20054;-66
2021/01/22 00:40:52;;;;;;;24.50;5.32;;;13.40;99.90;;;;;;5096724;28;20396;-66
2021/01/22 00:43:21;;;;;;;30.48;4.95;;;13.40;99.90;;;;;;5095765;28;20074;-66
2021/01/22 00:45:48;;;;;;;18.73;3.67;;;13.40;99.90;;;;;;5078864;28;20040;-66
2021/01/22 00:48:16;;;;;;;28.20;4.30;;;13.40;99.90;;;;;;5095554;28;20067;-66
2021/01/22 00:50:43;;;;;;;15.57;2.55;;;13.40;99.90;;;;;;5096855;28;20048;-65
2021/01/22 00:53:11;;;;;;;23.58;3.55;;;13.50;99.90;;;;;;5095492;28;20082;-65
2021/01/22 00:55:39;;;;;;;19.70;5.25;;;13.50;99.90;;;;;;5078707;28;20411;-66
2021/01/22 00:58:38;;;;;;;19.38;2.80;;;13.50;99.90;;;;;;5105775;28;20059;-65
2021/01/22 01:01:25;;;;;;;22.45;4.65;;;13.50;99.90;;;;;;5095389;28;20048;-66
2021/01/22 01:03:55;;;;;;;29.98;5.13;;;13.40;99.90;;;;;;5096165;28;20059;-66
2021/01/22 01:06:24;;;;;;;23.58;4.25;;;13.50;99.90;;;;;;5094994;28;20055;-66
2021/01/22 01:08:55;;;;;;;27.48;4.25;;;13.40;99.90;;;;;;5095306;28;20048;-66
2021/01/22 01:11:38;;;;;;;27.35;4.82;;;13.50;99.90;;;;;;5080689;28;20108;-65
2021/01/22 01:14:31;;;;;;;29.70;5.93;;;13.50;99.90;;;;;;5089203;28;20071;-66
2021/01/22 01:16:58;;;;;;;21.95;4.32;;;13.50;99.90;;;;;;5075031;28;20420;-66
2021/01/22 01:19:26;;;;;;;21.73;4.22;;;13.50;99.90;;;;;;5075853;28;20416;-66
2021/01/22 01:21:53;;;;;;;20.23;4.00;;;13.50;99.90;;;;;;5075918;28;20048;-66
2021/01/22 01:24:21;;;;;;;46.08;5.35;;;13.50;99.90;;;;;;5075256;28;20087;-65
2021/01/22 01:26:48;;;;;;;28.10;3.65;;;13.50;99.90;;;;;;5074439;28;20051;-66
2021/01/22 01:29:15;;;;;;;19.35;3.28;;;13.40;99.90;;;;;;5092557;28;20074;-66
2021/01/22 01:31:43;;;;;;;38.28;5.15;;;13.40;99.90;;;;;;5096127;28;20101;-65
2021/01/22 01:34:10;;;;;;;22.20;4.47;;;13.40;99.90;;;;;;5095492;28;20496;-65
2021/01/22 01:36:37;;;;;;;16.90;3.90;;;13.40;99.90;;;;;;5094607;28;20518;-66
2021/01/22 01:39:05;;;;;;;29.58;4.80;;;13.40;99.90;;;;;;5095568;28;20048;-65
2021/01/22 01:41:32;;;;;;;21.13;4.60;;;13.40;99.90;;;;;;5094680;28;20059;-65
2021/01/22 01:44:00;;;;;;;24.08;3.35;;;13.30;99.90;;;;;;5095294;28;20051;-65
2021/01/22 01:46:27;;;;;;;26.02;5.70;;;13.30;99.90;;;;;;5095627;28;20044;-66
2021/01/22 01:48:55;;;;;;;25.92;3.60;;;13.30;99.90;;;;;;5094303;28;20411;-66
2021/01/22 01:51:23;;;;;;;15.02;3.78;;;13.30;99.90;;;;;;5094840;28;20056;-66
2021/01/22 01:53:50;;;;;;;20.02;2.65;;;13.20;99.90;;;;;;5094332;28;20052;-65
2021/01/22 01:56:18;;;;;;;23.58;5.45;;;13.20;99.90;;;;;;5095565;28;20055;-66
2021/01/22 01:58:45;;;;;;;20.52;3.67;;;13.20;99.90;;;;;;5094064;28;20047;-66
2021/01/22 02:01:14;;;;;;;33.88;5.88;;;13.20;99.90;;;;;;5094512;28;20072;-66
2021/01/22 02:03:42;;;;;;;19.30;3.95;;;13.20;99.90;;;;;;5093737;28;20044;-66
2021/01/22 02:06:09;;;;;;;18.27;4.43;;;13.20;99.90;;;;;;5094014;28;20068;-65
2021/01/22 02:08:40;;;;;;;15.43;3.17;;;13.10;99.90;;;;;;5095236;28;20500;-66
2021/01/22 02:11:12;;;;;;;23.70;3.53;;;13.20;99.90;;;;;;5094271;28;20503;-65
2021/01/22 02:13:42;;;;;;;16.10;2.90;;;13.10;99.90;;;;;;5093936;28;20055;-66
2021/01/22 02:16:10;;;;;;;25.80;4.00;;;13.10;99.90;;;;;;5077133;28;20074;-66
2021/01/22 02:18:39;;;;;;;23.15;3.63;;;13.10;99.90;;;;;;5077366;28;20040;-66
2021/01/22 02:21:26;;;;;;;20.80;3.00;;;13.10;99.90;;;;;;5094964;28;20040;-66
2021/01/22 02:24:05;;;;;;;;;;;13.10;99.90;;;;;;5093997;28;20077;-66
2021/01/22 02:26:32;;;;;;;23.63;3.90;;;13.10;99.90;;;;;;5094961;28;19926;-66
2021/01/22 02:29:06;;;;;;;22.38;3.38;;;13.10;99.90;;;;;;5092866;28;20056;-66
2021/01/22 02:31:42;;;;;;;13.35;2.50;;;13.10;99.90;;;;;;5094775;28;20048;-66
2021/01/22 02:34:11;;;;;;;18.45;3.13;;;13.00;99.90;;;;;;5075206;28;20056;-65
2021/01/22 02:36:43;;;;;;;30.52;4.50;;;13.00;99.90;;;;;;5090026;28;20056;-65
2021/01/22 02:39:14;;;;;;;13.35;3.45;;;13.00;99.90;;;;;;5074867;28;20102;-66
2021/01/22 02:41:46;;;;;;;26.13;2.47;;;13.00;99.90;;;;;;5073644;28;20056;-65
2021/01/22 02:44:13;;;;;;;17.17;3.75;;;13.00;99.90;;;;;;5074003;28;20392;-65
2021/01/22 02:46:41;;;;;;;28.02;2.65;;;13.00;99.90;;;;;;5056665;28;20052;-65
2021/01/22 02:49:09;;;;;;;20.23;3.40;;;13.00;99.90;;;;;;5071213;28;20055;-66
2021/01/22 02:51:36;;;;;;;25.52;4.18;;;13.00;99.90;;;;;;5094454;28;20139;-66
2021/01/22 02:54:03;;;;;;;28.40;3.65;;;13.00;99.90;;;;;;5092784;28;20040;-65
2021/01/22 02:56:55;;;;;;;19.05;3.20;;;13.00;99.90;;;;;;5093321;28;20427;-66
2021/01/22 02:59:34;;;;;;;20.27;4.55;;;13.00;99.90;;;;;;5093120;28;20048;-66
2021/01/22 03:02:18;;;;;;;13.30;3.25;;;13.00;99.90;;;;;;5094262;28;20464;-66
2021/01/22 03:04:47;;;;;;;18.85;4.65;;;13.00;99.90;;;;;;5093943;28;20080;-65
2021/01/22 03:07:25;;;;;;;20.02;5.22;;;13.00;99.90;;;;;;5094064;28;20040;-65
2021/01/22 03:09:58;;;;;;;26.02;3.58;;;13.00;99.90;;;;;;5094166;28;20058;-66
2021/01/22 03:12:30;;;;;;;18.57;2.30;;;13.10;99.90;;;;;;5092853;28;20438;-65
2021/01/22 03:14:59;;;;;;;23.85;3.78;;;13.10;99.90;;;;;;5093358;28;20090;-66
2021/01/22 03:17:26;;;;;;;23.95;3.30;;;13.10;99.90;;;;;;5093703;28;20055;-66
2021/01/22 03:19:56;;;;;;;25.27;4.10;;;13.20;99.90;;;;;;5073577;28;20045;-65
2021/01/22 03:22:24;;;;;;;19.88;5.03;;;13.20;99.90;;;;;;5071945;28;20412;-64
2021/01/22 03:24:51;;;;;;;22.63;4.25;;;13.20;99.90;;;;;;5073459;28;20044;-66
2021/01/22 03:27:18;;;;;;;19.52;2.63;;;13.20;99.90;;;;;;5073479;28;20048;-66
2021/01/22 03:29:46;;;;;;;19.52;3.35;;;13.20;99.90;;;;;;5073455;28;20507;-65
2021/01/22 03:32:13;;;;;;;20.88;3.08;;;13.20;99.90;;;;;;5073504;28;20052;-66
2021/01/22 03:34:40;;;;;;;26.92;5.00;;;13.20;99.90;;;;;;5055656;28;20071;-64
2021/01/22 03:37:08;;;;;;;34.58;5.25;;;13.10;99.90;;;;;;5055935;28;20048;-65
2021/01/22 03:39:35;;;;;;;20.30;3.20;;;13.10;99.90;;;;;;5071865;28;20074;-66
2021/01/22 03:42:04;;;;;;;17.92;3.10;;;13.10;99.90;;;;;;5073389;28;20048;-66
2021/01/22 03:44:32;;;;;;;18.10;2.90;;;13.10;99.90;;;;;;5071735;28;20052;-66
2021/01/22 03:46:59;;;;;;;25.92;4.68;;;13.10;99.90;;;;;;5073241;28;20086;-65
2021/01/22 03:49:27;;;;;;;40.42;5.25;;;13.10;99.90;;;;;;5087018;28;20135;-66
2021/01/22 03:51:54;;;;;;;15.90;3.38;;;13.10;99.90;;;;;;5093425;28;20048;-66
2021/01/22 03:54:21;;;;;;;23.98;4.28;;;13.10;99.90;;;;;;5092994;28;20126;-65
2021/01/22 03:56:49;;;;;;;19.35;2.47;;;13.00;99.90;;;;;;5093196;28;20048;-66
2021/01/22 03:59:16;;;;;;;26.55;3.05;;;13.00;99.90;;;;;;5086980;28;20052;-66
2021/01/22 04:01:43;;;;;;;20.20;3.38;;;13.00;99.90;;;;;;5082239;28;20052;-65
2021/01/22 04:04:11;;;;;;;29.33;5.78;;;13.00;99.90;;;;;;5071667;28;20101;-65
2021/01/22 04:06:41;;;;;;;19.45;3.72;;;13.00;99.90;;;;;;5055842;28;20049;-65
2021/01/22 04:09:08;;;;;;;30.10;4.03;;;13.00;99.90;;;;;;5073042;28;20131;-65
2021/01/22 04:11:36;;;;;;;25.00;3.35;;;13.00;99.90;;;;;;5071766;28;20397;-66
2021/01/22 04:14:03;;;;;;;28.90;4.25;;;13.00;99.90;;;;;;5038418;28;20048;-66
2021/01/22 04:16:30;;;;;;;31.10;4.55;;;13.10;99.90;;;;;;5071804;28;20055;-65
2021/01/22 04:18:58;;;;;;;22.40;2.55;;;13.00;99.90;;;;;;5084404;28;20059;-66
2021/01/22 04:21:27;;;;;;;21.23;3.47;;;13.10;99.90;;;;;;5071739;28;20049;-66
2021/01/22 04:23:55;;;;;;;28.77;4.90;;;13.00;99.90;;;;;;5071300;28;20058;-66
2021/01/22 04:26:22;;;;;;;19.73;3.78;;;13.00;99.90;;;;;;5072927;28;20067;-66
2021/01/22 04:28:53;;;;;;;19.00;3.10;;;13.00;99.90;;;;;;5088507;28;20041;-66
2021/01/22 04:31:21;;;;;;;49.92;4.47;;;13.00;99.90;;;;;;5071751;28;20052;-65
2021/01/22 04:33:49;;;;;;;25.90;3.83;;;13.00;99.90;;;;;;5072483;28;20454;-66
2021/01/22 04:36:17;;;;;;;20.83;4.80;;;13.00;99.90;;;;;;5072742;28;20048;-66
2021/01/22 04:38:44;;;;;;;21.63;3.75;;;13.00;99.90;;;;;;5072765;28;20076;-66
2021/01/22 04:41:11;;;;;;;31.80;5.00;;;13.00;99.90;;;;;;5072704;28;20062;-66
2021/01/22 04:43:44;;;;;;;21.63;4.35;;;13.00;99.90;;;;;;5072408;28;20048;-66
2021/01/22 04:46:12;;;;;;;20.13;3.38;;;13.00;99.90;;;;;;5072688;28;20056;-66
2021/01/22 04:48:40;;;;;;;16.92;4.53;;;13.00;99.90;;;;;;5079963;28;20044;-66
2021/01/22 04:51:09;;;;;;;29.17;4.18;;;13.00;99.90;;;;;;5093155;28;20040;-65
2021/01/22 04:53:37;;;;;;;30.77;6.45;;;13.00;99.90;;;;;;5092525;28;20165;-66
2021/01/22 04:56:08;;;;;;;20.58;4.03;;;13.00;99.90;;;;;;5091535;28;20126;-66
2021/01/22 04:58:41;;;;;;;24.05;3.80;;;13.00;99.90;;;;;;5092400;28;20400;-66
2021/01/22 05:01:10;;;;;;;24.85;4.65;;;13.00;99.90;;;;;;5092916;28;20118;-65
2021/01/22 05:03:38;;;;;;;23.80;5.60;;;13.00;99.90;;;;;;5094888;28;20048;-66
2021/01/22 05:06:05;;;;;;;17.85;3.53;;;13.00;99.90;;;;;;5095277;28;20123;-65
2021/01/22 05:08:33;;;;;;;27.83;3.75;;;13.00;99.90;;;;;;5096679;28;20454;-65
2021/01/22 05:11:00;;;;;;;17.50;3.13;;;13.00;99.90;;;;;;5095313;28;20052;-66
2021/01/22 05:13:28;;;;;;;19.70;3.72;;;13.00;99.90;;;;;;5095861;28;20411;-65
2021/01/22 05:16:15;;;;;;;28.67;3.88;;;13.00;99.90;;;;;;5095587;28;20563;-66
2021/01/22 05:18:43;;;;;;;30.23;4.78;;;13.00;99.90;;;;;;5095778;28;20143;-66
2021/01/22 05:21:13;;;;;;;12.60;2.72;;;13.10;99.90;;;;;;5094953;28;20448;-66
2021/01/22 05:23:42;;;;;;;23.45;4.22;;;13.10;99.90;;;;;;5075898;28;20040;-66
2021/01/22 05:26:12;;;;;;;22.65;3.65;;;13.10;99.90;;;;;;5093178;28;20063;-66
2021/01/22 05:28:48;;;;;;;29.52;4.75;;;13.00;99.90;;;;;;5095094;28;20055;-66
2021/01/22 05:31:17;;;;;;;54.60;21.95;;;13.10;99.90;;;;;;5093744;28;20051;-65
2021/01/22 05:33:56;;;;;;;23.52;5.53;;;13.10;99.90;;;;;;5094853;28;20457;-66
2021/01/22 05:36:29;;;;;;;23.58;4.28;;;13.10;99.90;;;;;;5095125;28;20048;-65
2021/01/22 05:38:59;;;;;;;26.20;4.82;;;13.20;99.90;;;;;;5095093;28;20468;-66
2021/01/22 05:41:30;;;;;;;19.75;3.42;;;13.20;99.90;;;;;;5093737;28;20124;-66
2021/01/22 05:43:57;;;;;;;32.25;4.40;;;13.20;99.90;;;;;;5095500;28;20153;-66
2021/01/22 05:46:27;;;;;;;35.55;3.75;;;13.20;99.90;;;;;;5094859;28;20044;-67
2021/01/22 05:49:14;;;;;;;25.40;3.33;;;13.20;99.90;;;;;;5095356;28;20044;-67
2021/01/22 05:51:42;;;;;;;15.73;3.15;;;13.20;99.90;;;;;;5094507;28;20052;-66
2021/01/22 05:54:12;;;;;;;23.05;2.45;;;13.20;99.90;;;;;;5095152;28;20052;-66
2021/01/22 05:56:56;;;;;;;19.30;2.13;;;13.20;99.90;;;;;;5095525;28;20048;-66
2021/01/22 05:59:24;;;;;;;20.85;5.47;;;13.20;99.90;;;;;;5094335;28;20051;-66
2021/01/22 06:01:51;;;;;;;20.90;4.10;;;13.20;99.90;;;;;;5077879;28;20048;-66
2021/01/22 06:04:19;;;;;;;25.17;4.22;;;13.20;99.90;;;;;;5093797;28;20131;-66
2021/01/22 06:06:46;;;;;;;29.80;3.42;;;13.20;99.90;;;;;;5094024;28;20040;-66
2021/01/22 06:09:13;;;;;;;27.17;5.25;;;13.30;99.90;;;;;;5094160;28;20134;-66
2021/01/22 06:11:43;;;;;;;22.02;4.15;;;13.30;99.90;;;;;;5094804;28;20048;-66
2021/01/22 06:14:14;;;;;;;22.25;4.80;;;13.30;99.90;;;;;;5094343;28;20102;-66
2021/01/22 06:16:44;;;;;;;18.55;4.80;;;13.30;99.90;;;;;;5094096;28;20052;-67
2021/01/22 06:19:14;;;;;;;21.52;2.80;;;13.30;99.90;;;;;;5094633;28;20498;-66
2021/01/22 06:21:59;;;;;;;20.42;5.13;;;13.30;99.90;;;;;;5095127;28;20056;-64
2021/01/22 06:24:27;;;;;;;23.30;4.75;;;13.30;99.90;;;;;;5094629;28;20097;-65
2021/01/22 06:26:56;;;;;;;19.10;4.53;;;13.30;99.90;;;;;;5093659;28;20044;-66
2021/01/22 06:29:26;;;;;;;23.55;5.13;;;13.40;99.90;;;;;;5094879;28;20044;-65
2021/01/22 06:31:55;;;;;;;66.15;22.23;;;13.40;99.90;;;;;;5095423;28;20093;-66
2021/01/22 06:34:33;;;;;;;26.70;7.13;;;13.40;99.90;;;;;;5094433;28;20050;-66
2021/01/22 06:37:03;;;;;;;17.52;2.80;;;13.50;99.90;;;;;;5093192;28;20556;-65
2021/01/22 06:39:31;;;;;;;30.55;4.20;;;13.50;99.90;;;;;;5094879;28;20063;-66
2021/01/22 06:42:02;;;;;;;28.90;2.75;;;13.50;99.90;;;;;;5076650;28;20492;-66
2021/01/22 06:44:30;;;;;;;17.83;3.90;;;13.50;99.90;;;;;;5093135;28;20067;-65
2021/01/22 06:46:57;;;;;;;18.63;3.35;;;13.50;99.90;;;;;;5093500;28;20055;-66
2021/01/22 06:49:31;;;;;;;21.38;2.40;;;13.50;99.90;;;;;;5093014;28;20475;-65
2021/01/22 06:52:13;;;;;;;30.88;5.25;;;13.60;99.90;;;;;;5074227;28;20135;-65
2021/01/22 06:55:02;;;;;;;26.85;4.35;;;13.60;99.90;;;;;;5072616;28;20061;-66
2021/01/22 06:57:31;;;;;;;18.77;2.95;;;13.60;99.90;;;;;;5056153;28;20048;-65
2021/01/22 06:59:59;;;;;;;19.70;2.55;;;13.70;99.90;;;;;;5073104;28;20066;-66
2021/01/22 07:02:32;;;;;;;33.65;4.07;;;13.70;99.90;;;;;;5073578;28;20045;-65
2021/01/22 07:05:00;;;;;;;19.35;5.88;;;13.80;99.90;;;;;;5072854;28;20044;-66
2021/01/22 07:07:47;;;;;;;26.88;5.28;;;13.80;99.90;;;;;;5072599;28;20053;-66
2021/01/22 07:10:15;;;;;;;22.85;3.92;;;13.90;99.90;;;;;;5073873;28;20056;-65
2021/01/22 07:12:47;;;;;;;20.73;4.07;;;13.90;99.90;;;;;;5072387;28;20084;-65
2021/01/22 07:15:21;;;;;;;11.77;2.70;;;14.00;99.90;;;;;;5073888;28;20055;-66
2021/01/22 07:17:56;;;;;;;16.33;2.67;;;14.00;99.90;;;;;;5077805;28;20059;-65
2021/01/22 07:20:23;;;;;;;21.00;4.78;;;14.00;99.90;;;;;;5094099;28;20503;-66
2021/01/22 07:22:57;;;;;;;24.08;3.28;;;14.10;99.90;;;;;;5073244;28;20128;-65
2021/01/22 07:25:35;;;;;;;22.15;4.10;;;14.10;99.90;;;;;;5089081;28;20047;-66
2021/01/22 07:28:05;;;;;;;23.35;3.60;;;14.10;99.90;;;;;;5072635;28;20048;-66
2021/01/22 07:30:40;;;;;;;20.45;2.97;;;14.20;99.90;;;;;;5073539;28;20052;-66
2021/01/22 07:33:26;;;;;;;20.67;1.67;;;14.20;99.90;;;;;;5073186;28;20079;-66
2021/01/22 07:36:19;;;;;;;17.05;3.03;;;14.20;99.90;;;;;;5073360;28;20448;-66
2021/01/22 07:38:51;;;;;;;21.48;2.75;;;14.30;99.90;;;;;;5073516;28;20173;-66
2021/01/22 07:41:22;;;;;;;14.70;3.03;;;14.40;99.90;;;;;;5072091;28;20048;-66
2021/01/22 07:44:00;;;;;;;22.17;5.00;;;14.50;99.90;;;;;;5072991;28;20511;-66
2021/01/22 07:46:43;;;;;;;21.92;3.78;;;14.60;99.90;;;;;;5073417;28;20053;-66
2021/01/22 07:49:10;;;;;;;20.15;5.18;;;14.70;99.90;;;;;;5086686;28;20097;-66
2021/01/22 07:51:38;;;;;;;20.30;3.63;;;14.70;99.90;;;;;;5092110;28;20416;-66
2021/01/22 07:54:06;;;;;;;23.98;3.13;;;14.80;99.90;;;;;;5092925;28;20040;-66
2021/01/22 07:56:38;;;;;;;21.45;4.07;;;14.80;99.90;;;;;;5093170;28;20104;-66
2021/01/22 07:59:06;;;;;;;16.25;2.92;;;14.80;99.90;;;;;;5093383;28;20077;-66
2021/01/22 08:01:36;;;;;;;19.02;3.72;;;14.90;99.90;;;;;;5093519;28;20051;-66
2021/01/22 08:04:05;;;;;;;14.63;1.90;;;15.00;99.90;;;;;;5091320;28;20044;-64
2021/01/22 08:06:46;;;;;;;23.88;3.38;;;15.10;99.90;;;;;;5093057;28;20518;-65
2021/01/22 08:09:14;;;;;;;18.33;3.47;;;15.10;99.90;;;;;;5093285;28;20163;-65
2021/01/22 08:11:41;;;;;;;14.70;2.30;;;15.20;99.90;;;;;;5092916;28;20434;-67
2021/01/22 08:14:12;;;;;;;17.10;2.60;;;15.30;99.90;;;;;;5092722;28;20384;-65
2021/01/22 08:16:41;;;;;;;21.70;3.53;;;15.40;99.90;;;;;;5075368;28;20132;-65
2021/01/22 08:19:08;;;;;;;20.17;2.78;;;15.50;99.90;;;;;;5091229;28;20036;-65
2021/01/22 08:21:40;;;;;;;21.58;3.53;;;15.70;99.90;;;;;;5093029;28;20044;-65
2021/01/22 08:24:09;;;;;;;16.25;2.85;;;15.70;99.90;;;;;;5092486;28;20044;-66
2021/01/22 08:26:39;;;;;;;14.07;2.58;;;15.90;99.90;;;;;;5092911;28;20051;-66
2021/01/22 08:29:09;;;;;;;8.95;2.30;;;16.00;99.90;;;;;;5093087;28;20052;-66
2021/01/22 08:31:39;;;;;;;11.10;1.75;;;16.00;99.90;;;;;;5092146;28;20044;-67
2021/01/22 08:34:07;;;;;;;22.63;5.18;;;16.00;99.90;;;;;;5092850;28;20043;-66
2021/01/22 08:36:36;;;;;;;16.92;2.70;;;16.10;99.90;;;;;;5093780;28;20380;-66
2021/01/22 08:39:03;;;;;;;18.15;5.13;;;16.10;99.90;;;;;;5095949;28;20555;-66
2021/01/22 08:41:31;;;;;;;13.10;2.30;;;16.20;99.90;;;;;;5097126;28;20052;-66
2021/01/22 08:43:58;;;;;;;14.90;3.17;;;16.20;99.90;;;;;;5096417;28;20074;-66
2021/01/22 08:46:26;;;;;;;19.38;3.35;;;16.10;99.90;;;;;;5095910;28;20135;-65
2021/01/22 08:48:54;;;;;;;20.85;3.45;;;16.10;99.90;;;;;;5096889;28;20085;-66
2021/01/22 08:51:35;;;;;;;15.32;4.05;;;16.10;99.90;;;;;;5096832;28;20063;-66
2021/01/22 08:54:03;;;;;;;24.20;3.72;;;16.10;99.90;;;;;;5096207;28;20055;-66
2021/01/22 08:56:31;;;;;;;7.55;1.80;;;16.10;99.90;;;;;;5096718;28;20048;-66
2021/01/22 08:59:02;;;;;;;9.35;2.47;;;16.00;99.90;;;;;;5095815;28;20048;-65
2021/01/22 09:01:56;;;;;;;19.88;2.45;;;16.00;99.90;;;;;;5096671;28;20459;-66
2021/01/22 09:04:29;;;;;;;11.32;2.92;;;15.90;99.90;;;;;;5096108;28;20047;-66
2021/01/22 09:06:58;;;;;;;13.98;3.10;;;16.00;99.90;;;;;;5095061;28;20040;-66
2021/01/22 09:09:36;;;;;;;12.57;3.72;;;16.10;99.90;;;;;;5094371;28;20051;-66
2021/01/22 09:12:10;;;;;;;10.75;2.85;;;16.20;99.90;;;;;;5096002;28;20419;-65
2021/01/22 09:14:45;;;;;;;15.23;2.67;;;16.40;99.90;;;;;;5095982;28;20066;-65
2021/01/22 09:17:34;;;;;;;16.23;4.05;;;16.40;99.90;;;;;;5096407;28;20056;-66
2021/01/22 09:20:22;;;;;;;16.92;3.35;;;16.50;99.90;;;;;;5094985;28;20066;-66
2021/01/22 09:23:11;;;;;;;27.17;2.30;;;16.40;99.90;;;;;;5077994;28;20059;-66
2021/01/22 09:25:39;;;;;;;17.02;4.53;;;16.30;99.90;;;;;;5094876;28;20431;-66
2021/01/22 09:28:06;;;;;;;10.48;3.83;;;16.30;99.90;;;;;;5096057;28;20475;-66
2021/01/22 09:30:35;;;;;;;21.17;3.65;;;16.40;99.90;;;;;;5095968;28;20422;-66
2021/01/22 09:33:02;;;;;;;17.40;3.78;;;16.40;99.90;;;;;;5094375;28;20080;-66
2021/01/22 09:35:30;;;;;;;12.88;3.20;;;16.50;99.90;;;;;;5095914;28;20412;-65
2021/01/22 09:37:59;;;;;;;18.83;2.75;;;16.50;99.90;;;;;;5095822;28;20052;-66
2021/01/22 09:40:29;;;;;;;10.32;1.92;;;16.50;99.90;;;;;;5095214;28;20075;-66
2021/01/22 09:42:56;;;;;;;23.13;3.60;;;16.60;99.90;;;;;;5094154;28;20040;-65
2021/01/22 09:45:24;;;;;;;15.93;3.95;;;16.80;99.90;;;;;;5094231;28;20044;-66
2021/01/22 09:47:52;;;;;;;13.25;2.03;;;16.80;99.90;;;;;;5093300;28;20048;-64
2021/01/22 09:50:19;;;;;;;14.05;3.50;;;16.70;99.90;;;;;;5095663;28;20052;-64
2021/01/22 09:52:50;;;;;;;23.63;2.95;;;16.60;99.90;;;;;;5094934;28;20443;-64
2021/01/22 09:55:19;;;;;;;11.10;2.95;;;16.50;99.90;;;;;;5095597;28;20059;-63
2021/01/22 09:57:47;;;;;;;11.05;2.65;;;16.60;99.90;;;;;;5094050;28;20044;-64
2021/01/22 10:00:15;;;;;;;14.52;1.65;;;16.50;99.90;;;;;;5095206;28;20055;-63
2021/01/22 10:02:44;;;;;;;15.43;3.10;;;16.50;99.90;;;;;;5094980;28;20058;-64
2021/01/22 10:05:12;;;;;;;13.40;2.55;;;16.50;99.90;;;;;;5095618;28;20044;-66
2021/01/22 10:07:39;;;;;;;12.68;3.42;;;16.50;99.90;;;;;;5095589;28;20071;-70
2021/01/22 10:10:08;;;;;;;10.02;2.97;;;16.50;99.90;;;;;;5095340;28;20051;-69
2021/01/22 10:12:35;;;;;;;16.45;2.65;;;16.60;99.90;;;;;;5093913;28;20052;-69
2021/01/22 10:15:04;;;;;;;6.65;2.50;;;16.80;99.90;;;;;;5095546;28;20525;-71
2021/01/22 10:17:33;;;;;;;11.07;2.78;;;16.90;99.90;;;;;;5093633;28;20052;-64
2021/01/22 10:20:03;;;;;;;13.70;2.85;;;17.20;99.90;;;;;;5093978;28;20055;-64
2021/01/22 10:22:33;;;;;;;11.68;2.53;;;17.40;99.90;;;;;;5094259;28;20122;-64
2021/01/22 10:25:01;;;;;;;7.70;1.67;;;17.60;99.90;;;;;;5094637;28;20491;-65
2021/01/22 10:27:28;;;;;;;34.20;2.75;;;17.70;99.90;;;;;;5095329;28;20121;-64
2021/01/22 10:30:04;;;;;;;6.65;2.13;;;17.70;99.90;;;;;;5094925;28;20059;-63
2021/01/22 10:32:31;;;;;;;15.70;3.83;;;17.60;99.90;;;;;;5093337;28;20055;-64
2021/01/22 10:34:59;;;;;;;16.35;2.42;;;17.60;99.90;;;;;;5093534;28;20059;-62
2021/01/22 10:37:26;;;;;;;10.38;2.40;;;17.60;99.90;;;;;;5093496;28;20054;-63
2021/01/22 10:39:54;;;;;;;14.02;3.65;;;17.50;99.90;;;;;;5094556;28;20400;-64
2021/01/22 10:42:21;;;;;;;17.52;3.83;;;17.40;99.90;;;;;;5094312;28;20071;-57
2021/01/22 10:44:49;;;;;;;12.95;2.78;;;17.30;99.90;;;;;;5094431;28;20055;-62
2021/01/22 10:47:16;;;;;;;12.73;2.30;;;17.20;99.90;;;;;;5094547;28;20052;-62
2021/01/22 10:49:54;;;;;;;23.42;3.58;;;17.30;99.90;;;;;;5094600;28;20063;-62
2021/01/22 10:52:22;;;;;;;13.90;2.58;;;17.30;99.90;;;;;;5092635;28;20051;-60
2021/01/22 10:54:49;;;;;;;12.25;1.52;;;17.30;99.90;;;;;;5094039;28;20040;-63
2021/01/22 10:57:20;;;;;;;13.63;3.92;;;17.40;99.90;;;;;;5093105;28;20047;-62
2021/01/22 10:59:47;;;;;;;17.52;4.10;;;17.40;99.90;;;;;;5093996;28;20051;-63
2021/01/22 11:02:15;;;;;;;10.57;2.25;;;17.40;99.90;;;;;;5093336;28;20040;-62
2021/01/22 11:04:42;;;;;;;17.73;2.40;;;17.40;99.90;;;;;;5092861;28;20109;-62
2021/01/22 11:07:12;;;;;;;19.08;3.17;;;17.30;99.90;;;;;;5094586;28;20055;-62
2021/01/22 11:09:43;;;;;;;11.13;3.28;;;17.40;99.90;;;;;;5094620;28;20048;-62
2021/01/22 11:12:13;;;;;;;14.77;2.03;;;17.50;99.90;;;;;;5093047;28;20404;-62
2021/01/22 11:14:45;;;;;;;16.45;3.50;;;17.50;99.90;;;;;;5093599;28;20083;-62
2021/01/22 11:17:16;;;;;;;11.52;3.00;;;17.50;99.90;;;;;;5093946;28;20056;-63
2021/01/22 11:19:43;;;;;;;18.58;2.33;;;17.60;99.90;;;;;;5093961;28;20040;-62
2021/01/22 11:22:12;;;;;;;18.48;4.45;;;17.60;99.90;;;;;;5092446;28;20047;-63
2021/01/22 11:24:39;;;;;;;17.60;2.95;;;17.60;99.90;;;;;;5093255;28;20063;-62
2021/01/22 11:27:10;;;;;;;23.40;4.50;;;17.60;99.90;;;;;;5094069;28;20070;-63
2021/01/22 11:29:41;;;;;;;15.82;2.65;;;17.50;99.90;;;;;;5092606;28;20044;-63
2021/01/22 11:32:08;;;;;;;21.88;3.60;;;17.50;99.90;;;;;;5093875;28;20080;-63
2021/01/22 11:34:35;;;;;;;22.10;4.45;;;17.50;99.90;;;;;;5092143;28;20071;-63
2021/01/22 11:37:03;;;;;;;16.63;3.42;;;17.60;99.90;;;;;;5093650;28;20047;-63
2021/01/22 11:39:32;;;;;;;17.00;2.05;;;17.70;99.90;;;;;;5093523;28;20457;-62
2021/01/22 11:42:00;;;;;;;13.95;2.10;;;17.60;99.90;;;;;;5092499;28;20044;-63
2021/01/22 11:44:28;;;;;;;15.52;2.22;;;17.60;99.90;;;;;;5091988;28;20063;-62
2021/01/22 11:46:55;;;;;;;20.73;3.22;;;17.80;99.90;;;;;;5092333;28;20050;-63
2021/01/22 11:49:23;;;;;;;25.15;3.20;;;17.60;99.90;;;;;;5092423;28;20052;-61
2021/01/22 11:51:51;;;;;;;14.25;3.47;;;17.60;99.90;;;;;;5075492;28;20511;-62
2021/01/22 11:54:18;;;;;;;15.43;4.10;;;17.40;99.90;;;;;;5093048;28;20047;-62
2021/01/22 11:56:46;;;;;;;17.13;4.53;;;17.40;99.90;;;;;;5075918;28;20040;-63
2021/01/22 11:59:14;;;;;;;11.63;3.33;;;17.30;99.90;;;;;;5092554;28;20186;-63
2021/01/22 12:01:41;;;;;;;20.08;4.65;;;17.30;99.90;;;;;;5092022;28;20130;-63
2021/01/22 12:04:12;;;;;;;13.55;3.78;;;17.30;99.90;;;;;;5093009;28;20136;-62
2021/01/22 12:06:40;;;;;;;15.32;4.05;;;17.20;99.90;;;;;;5093353;28;20499;-63
2021/01/22 12:09:08;;;;;;;23.85;6.32;;;17.20;99.90;;;;;;5093319;28;20044;-63
2021/01/22 12:11:35;;;;;;;25.67;12.00;;;17.50;99.90;;;;;;5091573;28;20388;-64
2021/01/22 12:14:03;;;;;;;31.30;10.30;;;17.50;99.90;;;;;;5093015;28;20054;-63
2021/01/22 12:16:30;;;;;;;19.05;5.07;;;17.50;99.90;;;;;;5091784;28;20495;-63
2021/01/22 12:18:57;;;;;;;26.02;5.97;;;17.40;99.90;;;;;;5093333;28;20443;-62
2021/01/22 12:21:27;;;;;;;19.27;7.60;;;17.40;99.90;;;;;;5092977;28;20052;-63
2021/01/22 12:23:54;;;;;;;21.73;7.80;;;17.40;99.90;;;;;;5092440;28;20044;-63
2021/01/22 12:26:25;;;;;;;23.42;4.65;;;17.40;99.90;;;;;;5093145;28;20483;-63
2021/01/22 12:28:54;;;;;;;20.67;3.17;;;17.30;99.90;;;;;;5092157;28;20403;-63
2021/01/22 12:31:21;;;;;;;20.70;4.47;;;17.40;99.90;;;;;;5091956;28;20040;-62
2021/01/22 12:33:48;;;;;;;17.67;4.80;;;17.30;99.90;;;;;;5074580;28;20056;-63
2021/01/22 12:36:16;;;;;;;22.02;4.85;;;17.10;99.90;;;;;;5093021;28;20130;-63
2021/01/22 12:38:43;;;;;;;15.20;4.15;;;16.90;99.90;;;;;;5091839;28;20415;-62
2021/01/22 12:41:11;;;;;;;24.95;10.60;;;16.80;99.90;;;;;;5092915;28;20052;-63
2021/01/22 12:43:39;;;;;;;31.98;7.03;;;16.80;99.90;;;;;;5089260;28;20051;-63
2021/01/22 12:46:09;;;;;;;18.73;5.43;;;16.80;99.90;;;;;;5089066;28;20476;-61
2021/01/22 12:48:36;;;;;;;18.83;5.00;;;16.80;99.90;;;;;;5071414;28;20132;-63
2021/01/22 12:51:04;;;;;;;18.92;6.25;;;17.00;99.90;;;;;;5075411;28;20094;-63
2021/01/22 12:53:31;;;;;;;18.65;3.55;;;17.00;99.90;;;;;;5092447;28;20051;-63